sensor_id;sensor_type;location;lat;lon;timestamp;temperature;humidity
16412;DHT22;8315;52.104;6.304;2023-05-20T00:00:49;13.30;98.40
16412;DHT22;8315;52.104;6.304;2023-05-20T00:03:17;13.40;98.40
16412;DHT22;8315;52.104;6.304;2023-05-20T00:05:45;13.50;98.40
16412;DHT22;8315;52.104;6.304;2023-05-20T00:08:12;13.50;98.40
16412;DHT22;8315;52.104;6.304;2023-05-20T00:10:38;13.50;98.40
16412;DHT22;8315;52.104;6.304;2023-05-20T00:13:07;13.50;98.40
16412;DHT22;8315;52.104;6.304;2023-05-20T00:15:35;13.50;98.40
16412;DHT22;8315;52.104;6.304;2023-05-20T00:18:02;13.40;98.40
16412;DHT22;8315;52.104;6.304;2023-05-20T00:20:29;13.40;98.40
16412;DHT22;8315;52.104;6.304;2023-05-20T00:22:56;13.50;98.40
16412;DHT22;8315;52.104;6.304;2023-05-20T00:25:22;13.50;98.40
16412;DHT22;8315;52.104;6.304;2023-05-20T00:27:49;13.50;98.40
16412;DHT22;8315;52.104;6.304;2023-05-20T00:30:17;13.50;98.40
16412;DHT22;8315;52.104;6.304;2023-05-20T00:32:44;13.50;98.40
16412;DHT22;8315;52.104;6.304;2023-05-20T00:35:11;13.60;98.40
16412;DHT22;8315;52.104;6.304;2023-05-20T00:37:38;13.50;98.40
16412;DHT22;8315;52.104;6.304;2023-05-20T00:40:05;13.40;98.40
16412;DHT22;8315;52.104;6.304;2023-05-20T00:42:33;13.50;98.40
16412;DHT22;8315;52.104;6.304;2023-05-20T00:45:00;13.30;98.40
16412;DHT22;8315;52.104;6.304;2023-05-20T00:47:28;13.30;98.40
16412;DHT22;8315;52.104;6.304;2023-05-20T00:49:57;13.20;98.40
16412;DHT22;8315;52.104;6.304;2023-05-20T00:52:24;13.30;98.40
16412;DHT22;8315;52.104;6.304;2023-05-20T00:54:51;13.30;98.40
16412;DHT22;8315;52.104;6.304;2023-05-20T00:57:18;13.30;98.40
16412;DHT22;8315;52.104;6.304;2023-05-20T00:59:45;13.30;98.40
16412;DHT22;8315;52.104;6.304;2023-05-20T01:02:12;13.30;98.40
16412;DHT22;8315;52.104;6.304;2023-05-20T01:04:41;13.20;98.40
16412;DHT22;8315;52.104;6.304;2023-05-20T01:07:12;13.30;98.40
16412;DHT22;8315;52.104;6.304;2023-05-20T01:09:39;13.40;98.40
16412;DHT22;8315;52.104;6.304;2023-05-20T01:12:09;13.30;98.40
16412;DHT22;8315;52.104;6.304;2023-05-20T01:14:40;13.50;98.40
16412;DHT22;8315;52.104;6.304;2023-05-20T01:17:09;13.40;98.40
16412;DHT22;8315;52.104;6.304;2023-05-20T01:19:37;13.30;98.40
16412;DHT22;8315;52.104;6.304;2023-05-20T01:22:08;13.20;98.40
16412;DHT22;8315;52.104;6.304;2023-05-20T01:24:39;13.20;98.40
16412;DHT22;8315;52.104;6.304;2023-05-20T01:27:07;13.30;98.40
16412;DHT22;8315;52.104;6.304;2023-05-20T01:29:35;13.40;98.40
16412;DHT22;8315;52.104;6.304;2023-05-20T01:32:03;13.30;98.40
16412;DHT22;8315;52.104;6.304;2023-05-20T01:34:32;13.30;98.40
16412;DHT22;8315;52.104;6.304;2023-05-20T01:36:59;13.30;98.40
16412;DHT22;8315;52.104;6.304;2023-05-20T01:39:26;13.30;98.40
16412;DHT22;8315;52.104;6.304;2023-05-20T01:41:55;13.20;98.40
16412;DHT22;8315;52.104;6.304;2023-05-20T01:44:22;13.20;98.40
16412;DHT22;8315;52.104;6.304;2023-05-20T01:46:49;13.20;98.40
16412;DHT22;8315;52.104;6.304;2023-05-20T01:49:16;13.30;98.40
16412;DHT22;8315;52.104;6.304;2023-05-20T01:51:43;13.30;98.40
16412;DHT22;8315;52.104;6.304;2023-05-20T01:54:10;13.30;98.40
16412;DHT22;8315;52.104;6.304;2023-05-20T01:56:37;13.30;98.40
16412;DHT22;8315;52.104;6.304;2023-05-20T01:59:05;13.20;98.40
16412;DHT22;8315;52.104;6.304;2023-05-20T02:01:32;13.20;98.40
16412;DHT22;8315;52.104;6.304;2023-05-20T02:03:58;13.40;98.40
16412;DHT22;8315;52.104;6.304;2023-05-20T02:06:25;13.30;98.40
16412;DHT22;8315;52.104;6.304;2023-05-20T02:08:53;13.40;98.40
16412;DHT22;8315;52.104;6.304;2023-05-20T02:11:20;13.30;98.40
16412;DHT22;8315;52.104;6.304;2023-05-20T02:13:47;13.20;98.40
16412;DHT22;8315;52.104;6.304;2023-05-20T02:16:16;13.10;98.40
16412;DHT22;8315;52.104;6.304;2023-05-20T02:18:43;13.10;98.40
16412;DHT22;8315;52.104;6.304;2023-05-20T02:21:14;13.20;98.40
16412;DHT22;8315;52.104;6.304;2023-05-20T02:23:41;13.20;98.40
16412;DHT22;8315;52.104;6.304;2023-05-20T02:26:08;13.20;98.40
16412;DHT22;8315;52.104;6.304;2023-05-20T02:28:35;13.20;98.40
16412;DHT22;8315;52.104;6.304;2023-05-20T02:31:04;13.10;98.40
16412;DHT22;8315;52.104;6.304;2023-05-20T02:33:32;13.20;98.40
16412;DHT22;8315;52.104;6.304;2023-05-20T02:35:59;13.30;98.40
16412;DHT22;8315;52.104;6.304;2023-05-20T02:38:26;13.20;98.40
16412;DHT22;8315;52.104;6.304;2023-05-20T02:40:54;13.30;98.40
16412;DHT22;8315;52.104;6.304;2023-05-20T02:43:23;13.40;98.40
16412;DHT22;8315;52.104;6.304;2023-05-20T02:45:50;13.40;98.40
16412;DHT22;8315;52.104;6.304;2023-05-20T02:48:16;13.40;98.40
16412;DHT22;8315;52.104;6.304;2023-05-20T02:50:45;13.40;98.40
16412;DHT22;8315;52.104;6.304;2023-05-20T02:53:12;13.20;98.40
16412;DHT22;8315;52.104;6.304;2023-05-20T02:55:39;13.10;98.40
16412;DHT22;8315;52.104;6.304;2023-05-20T02:58:06;13.20;98.40
16412;DHT22;8315;52.104;6.304;2023-05-20T03:00:33;13.20;98.40
16412;DHT22;8315;52.104;6.304;2023-05-20T03:03:05;13.10;98.40
16412;DHT22;8315;52.104;6.304;2023-05-20T03:05:32;13.00;98.40
16412;DHT22;8315;52.104;6.304;2023-05-20T03:08:05;12.90;98.40
16412;DHT22;8315;52.104;6.304;2023-05-20T03:10:34;12.90;98.40
16412;DHT22;8315;52.104;6.304;2023-05-20T03:13:01;12.80;98.40
16412;DHT22;8315;52.104;6.304;2023-05-20T03:15:28;12.80;98.40
16412;DHT22;8315;52.104;6.304;2023-05-20T03:17:55;12.80;98.40
16412;DHT22;8315;52.104;6.304;2023-05-20T03:20:22;13.00;98.40
16412;DHT22;8315;52.104;6.304;2023-05-20T03:22:50;13.00;98.40
16412;DHT22;8315;52.104;6.304;2023-05-20T03:25:18;12.90;98.40
16412;DHT22;8315;52.104;6.304;2023-05-20T03:27:45;12.90;98.40
16412;DHT22;8315;52.104;6.304;2023-05-20T03:30:12;13.00;98.40
16412;DHT22;8315;52.104;6.304;2023-05-20T03:32:39;13.00;98.40
16412;DHT22;8315;52.104;6.304;2023-05-20T03:35:06;12.90;98.40
16412;DHT22;8315;52.104;6.304;2023-05-20T03:37:34;12.80;98.40
16412;DHT22;8315;52.104;6.304;2023-05-20T03:40:01;12.80;98.40
16412;DHT22;8315;52.104;6.304;2023-05-20T03:42:32;12.80;98.40
16412;DHT22;8315;52.104;6.304;2023-05-20T03:44:59;12.70;98.40
16412;DHT22;8315;52.104;6.304;2023-05-20T03:47:30;12.70;98.40
16412;DHT22;8315;52.104;6.304;2023-05-20T03:49:57;12.70;98.40
16412;DHT22;8315;52.104;6.304;2023-05-20T03:52:24;12.60;98.40
16412;DHT22;8315;52.104;6.304;2023-05-20T03:54:51;12.60;98.40
16412;DHT22;8315;52.104;6.304;2023-05-20T03:57:18;12.70;98.40
16412;DHT22;8315;52.104;6.304;2023-05-20T03:59:46;12.60;98.40
16412;DHT22;8315;52.104;6.304;2023-05-20T04:02:13;12.60;98.40
16412;DHT22;8315;52.104;6.304;2023-05-20T04:04:41;12.50;98.40
16412;DHT22;8315;52.104;6.304;2023-05-20T04:07:08;12.40;98.40
16412;DHT22;8315;52.104;6.304;2023-05-20T04:09:35;12.40;98.40
16412;DHT22;8315;52.104;6.304;2023-05-20T04:12:03;12.50;98.40
16412;DHT22;8315;52.104;6.304;2023-05-20T04:14:32;12.30;98.40
16412;DHT22;8315;52.104;6.304;2023-05-20T04:17:02;12.40;98.40
16412;DHT22;8315;52.104;6.304;2023-05-20T04:19:31;12.40;98.40
16412;DHT22;8315;52.104;6.304;2023-05-20T04:21:59;12.30;98.40
16412;DHT22;8315;52.104;6.304;2023-05-20T04:24:26;12.40;98.40
16412;DHT22;8315;52.104;6.304;2023-05-20T04:26:53;12.40;98.40
16412;DHT22;8315;52.104;6.304;2023-05-20T04:29:20;12.30;98.40
16412;DHT22;8315;52.104;6.304;2023-05-20T04:31:47;12.30;98.40
16412;DHT22;8315;52.104;6.304;2023-05-20T04:34:16;12.10;98.40
16412;DHT22;8315;52.104;6.304;2023-05-20T04:36:44;12.20;98.40
16412;DHT22;8315;52.104;6.304;2023-05-20T04:39:11;12.30;98.40
16412;DHT22;8315;52.104;6.304;2023-05-20T04:41:40;12.30;98.40
16412;DHT22;8315;52.104;6.304;2023-05-20T04:44:07;12.30;98.40
16412;DHT22;8315;52.104;6.304;2023-05-20T04:46:33;12.30;98.40
16412;DHT22;8315;52.104;6.304;2023-05-20T04:49:00;12.20;98.40
16412;DHT22;8315;52.104;6.304;2023-05-20T04:51:30;12.30;98.40
16412;DHT22;8315;52.104;6.304;2023-05-20T04:53:56;12.30;98.40
16412;DHT22;8315;52.104;6.304;2023-05-20T04:56:24;12.40;98.40
16412;DHT22;8315;52.104;6.304;2023-05-20T04:58:51;12.40;98.40
16412;DHT22;8315;52.104;6.304;2023-05-20T05:01:18;12.30;98.40
16412;DHT22;8315;52.104;6.304;2023-05-20T05:03:46;12.40;98.40
16412;DHT22;8315;52.104;6.304;2023-05-20T05:06:13;12.60;98.40
16412;DHT22;8315;52.104;6.304;2023-05-20T05:08:41;12.50;98.40
16412;DHT22;8315;52.104;6.304;2023-05-20T05:11:08;12.50;98.40
16412;DHT22;8315;52.104;6.304;2023-05-20T05:13:35;12.60;98.40
16412;DHT22;8315;52.104;6.304;2023-05-20T05:16:02;12.70;98.40
16412;DHT22;8315;52.104;6.304;2023-05-20T05:18:30;12.70;98.40
16412;DHT22;8315;52.104;6.304;2023-05-20T05:20:58;12.70;98.40
16412;DHT22;8315;52.104;6.304;2023-05-20T05:23:26;12.70;98.40
16412;DHT22;8315;52.104;6.304;2023-05-20T05:25:54;12.70;98.40
16412;DHT22;8315;52.104;6.304;2023-05-20T05:28:21;12.80;98.40
16412;DHT22;8315;52.104;6.304;2023-05-20T05:30:49;12.90;98.40
16412;DHT22;8315;52.104;6.304;2023-05-20T05:33:16;12.90;98.40
16412;DHT22;8315;52.104;6.304;2023-05-20T05:35:43;13.00;98.40
16412;DHT22;8315;52.104;6.304;2023-05-20T05:38:10;13.10;98.40
16412;DHT22;8315;52.104;6.304;2023-05-20T05:40:36;13.20;98.40
16412;DHT22;8315;52.104;6.304;2023-05-20T05:43:05;13.20;98.40
16412;DHT22;8315;52.104;6.304;2023-05-20T05:45:32;13.30;98.40
16412;DHT22;8315;52.104;6.304;2023-05-20T05:47:59;13.30;98.40
16412;DHT22;8315;52.104;6.304;2023-05-20T05:50:26;13.30;98.40
16412;DHT22;8315;52.104;6.304;2023-05-20T05:52:53;13.40;98.40
16412;DHT22;8315;52.104;6.304;2023-05-20T05:55:20;13.40;98.40
16412;DHT22;8315;52.104;6.304;2023-05-20T05:57:49;13.60;98.40
16412;DHT22;8315;52.104;6.304;2023-05-20T06:00:17;13.60;98.40
16412;DHT22;8315;52.104;6.304;2023-05-20T06:02:45;13.70;98.40
16412;DHT22;8315;52.104;6.304;2023-05-20T06:05:24;13.70;98.40
16412;DHT22;8315;52.104;6.304;2023-05-20T06:07:52;13.70;98.40
16412;DHT22;8315;52.104;6.304;2023-05-20T06:10:20;13.80;98.40
16412;DHT22;8315;52.104;6.304;2023-05-20T06:12:47;13.90;98.40
16412;DHT22;8315;52.104;6.304;2023-05-20T06:15:14;14.00;98.40
16412;DHT22;8315;52.104;6.304;2023-05-20T06:17:42;14.10;98.40
16412;DHT22;8315;52.104;6.304;2023-05-20T06:20:10;14.10;98.40
16412;DHT22;8315;52.104;6.304;2023-05-20T06:22:37;14.20;98.40
16412;DHT22;8315;52.104;6.304;2023-05-20T06:25:04;14.20;98.40
16412;DHT22;8315;52.104;6.304;2023-05-20T06:27:35;14.30;98.40
16412;DHT22;8315;52.104;6.304;2023-05-20T06:30:03;14.40;98.40
16412;DHT22;8315;52.104;6.304;2023-05-20T06:32:30;14.50;98.40
16412;DHT22;8315;52.104;6.304;2023-05-20T06:34:58;14.60;98.40
16412;DHT22;8315;52.104;6.304;2023-05-20T06:37:25;14.70;98.40
16412;DHT22;8315;52.104;6.304;2023-05-20T06:39:52;14.80;98.40
16412;DHT22;8315;52.104;6.304;2023-05-20T06:42:19;14.90;98.40
16412;DHT22;8315;52.104;6.304;2023-05-20T06:45:00;15.00;98.40
16412;DHT22;8315;52.104;6.304;2023-05-20T06:47:33;15.10;98.40
16412;DHT22;8315;52.104;6.304;2023-05-20T06:50:01;15.20;98.40
16412;DHT22;8315;52.104;6.304;2023-05-20T06:52:30;15.30;98.40
16412;DHT22;8315;52.104;6.304;2023-05-20T06:54:56;15.40;98.40
16412;DHT22;8315;52.104;6.304;2023-05-20T06:57:23;15.40;98.40
16412;DHT22;8315;52.104;6.304;2023-05-20T06:59:50;15.50;98.40
16412;DHT22;8315;52.104;6.304;2023-05-20T07:02:18;15.60;98.40
16412;DHT22;8315;52.104;6.304;2023-05-20T07:04:46;15.60;98.40
16412;DHT22;8315;52.104;6.304;2023-05-20T07:07:15;15.70;98.40
16412;DHT22;8315;52.104;6.304;2023-05-20T07:09:43;15.80;98.40
16412;DHT22;8315;52.104;6.304;2023-05-20T07:12:10;15.90;98.40
16412;DHT22;8315;52.104;6.304;2023-05-20T07:14:37;16.00;98.10
16412;DHT22;8315;52.104;6.304;2023-05-20T07:17:04;16.10;98.10
16412;DHT22;8315;52.104;6.304;2023-05-20T07:19:31;16.00;97.20
16412;DHT22;8315;52.104;6.304;2023-05-20T07:21:58;16.10;96.80
16412;DHT22;8315;52.104;6.304;2023-05-20T07:24:45;16.10;96.90
16412;DHT22;8315;52.104;6.304;2023-05-20T07:27:12;16.20;97.00
16412;DHT22;8315;52.104;6.304;2023-05-20T07:29:39;16.20;96.80
16412;DHT22;8315;52.104;6.304;2023-05-20T07:32:07;16.40;96.80
16412;DHT22;8315;52.104;6.304;2023-05-20T07:34:34;16.60;96.80
16412;DHT22;8315;52.104;6.304;2023-05-20T07:37:01;16.60;95.70
16412;DHT22;8315;52.104;6.304;2023-05-20T07:39:28;16.60;96.10
16412;DHT22;8315;52.104;6.304;2023-05-20T07:41:56;16.60;95.60
16412;DHT22;8315;52.104;6.304;2023-05-20T07:44:23;16.60;95.30
16412;DHT22;8315;52.104;6.304;2023-05-20T07:46:51;16.80;95.90
16412;DHT22;8315;52.104;6.304;2023-05-20T07:49:19;16.80;95.20
16412;DHT22;8315;52.104;6.304;2023-05-20T07:51:46;16.90;95.00
16412;DHT22;8315;52.104;6.304;2023-05-20T07:54:14;17.00;95.50
16412;DHT22;8315;52.104;6.304;2023-05-20T07:56:44;17.10;94.10
16412;DHT22;8315;52.104;6.304;2023-05-20T07:59:13;17.20;93.90
16412;DHT22;8315;52.104;6.304;2023-05-20T08:01:47;17.20;93.50
16412;DHT22;8315;52.104;6.304;2023-05-20T08:04:17;17.30;93.20
16412;DHT22;8315;52.104;6.304;2023-05-20T08:06:45;17.30;92.20
16412;DHT22;8315;52.104;6.304;2023-05-20T08:09:19;17.50;92.10
16412;DHT22;8315;52.104;6.304;2023-05-20T08:11:49;17.50;91.10
16412;DHT22;8315;52.104;6.304;2023-05-20T08:14:17;17.60;91.60
16412;DHT22;8315;52.104;6.304;2023-05-20T08:16:47;17.70;91.50
16412;DHT22;8315;52.104;6.304;2023-05-20T08:19:14;17.70;90.10
16412;DHT22;8315;52.104;6.304;2023-05-20T08:21:41;17.60;89.80
16412;DHT22;8315;52.104;6.304;2023-05-20T08:24:08;17.50;89.60
16412;DHT22;8315;52.104;6.304;2023-05-20T08:26:35;17.60;89.40
16412;DHT22;8315;52.104;6.304;2023-05-20T08:29:02;17.60;89.80
16412;DHT22;8315;52.104;6.304;2023-05-20T08:31:31;17.80;89.10
16412;DHT22;8315;52.104;6.304;2023-05-20T08:33:58;17.80;88.70
16412;DHT22;8315;52.104;6.304;2023-05-20T08:36:25;17.80;88.40
16412;DHT22;8315;52.104;6.304;2023-05-20T08:38:53;17.80;88.70
16412;DHT22;8315;52.104;6.304;2023-05-20T08:41:20;17.90;88.90
16412;DHT22;8315;52.104;6.304;2023-05-20T08:43:49;18.00;88.80
16412;DHT22;8315;52.104;6.304;2023-05-20T08:46:17;18.20;88.00
16412;DHT22;8315;52.104;6.304;2023-05-20T08:48:47;18.30;87.50
16412;DHT22;8315;52.104;6.304;2023-05-20T08:51:14;18.40;87.10
16412;DHT22;8315;52.104;6.304;2023-05-20T08:53:41;18.50;86.70
16412;DHT22;8315;52.104;6.304;2023-05-20T08:56:09;18.60;87.30
16412;DHT22;8315;52.104;6.304;2023-05-20T08:58:36;18.50;84.90
16412;DHT22;8315;52.104;6.304;2023-05-20T09:01:03;18.60;85.30
16412;DHT22;8315;52.104;6.304;2023-05-20T09:03:29;18.50;84.30
16412;DHT22;8315;52.104;6.304;2023-05-20T09:06:03;18.40;84.10
16412;DHT22;8315;52.104;6.304;2023-05-20T09:08:31;18.40;84.50
16412;DHT22;8315;52.104;6.304;2023-05-20T09:10:58;18.50;83.90
16412;DHT22;8315;52.104;6.304;2023-05-20T09:13:25;18.50;83.60
16412;DHT22;8315;52.104;6.304;2023-05-20T09:15:52;18.70;84.30
16412;DHT22;8315;52.104;6.304;2023-05-20T09:18:19;18.70;83.40
16412;DHT22;8315;52.104;6.304;2023-05-20T09:20:46;18.70;84.00
16412;DHT22;8315;52.104;6.304;2023-05-20T09:23:18;18.70;83.60
16412;DHT22;8315;52.104;6.304;2023-05-20T09:25:48;18.90;83.40
16412;DHT22;8315;52.104;6.304;2023-05-20T09:28:15;18.70;83.50
16412;DHT22;8315;52.104;6.304;2023-05-20T09:30:42;19.00;83.30
16412;DHT22;8315;52.104;6.304;2023-05-20T09:33:10;19.10;84.00
16412;DHT22;8315;52.104;6.304;2023-05-20T09:35:37;19.00;83.20
16412;DHT22;8315;52.104;6.304;2023-05-20T09:38:05;19.00;83.50
16412;DHT22;8315;52.104;6.304;2023-05-20T09:40:34;18.90;83.40
16412;DHT22;8315;52.104;6.304;2023-05-20T09:43:04;18.90;83.90
16412;DHT22;8315;52.104;6.304;2023-05-20T09:45:32;19.10;84.20
16412;DHT22;8315;52.104;6.304;2023-05-20T09:48:00;19.40;83.80
16412;DHT22;8315;52.104;6.304;2023-05-20T09:50:27;19.70;82.90
16412;DHT22;8315;52.104;6.304;2023-05-20T09:52:54;19.90;82.00
16412;DHT22;8315;52.104;6.304;2023-05-20T09:55:22;19.90;81.20
16412;DHT22;8315;52.104;6.304;2023-05-20T09:57:51;19.90;81.70
16412;DHT22;8315;52.104;6.304;2023-05-20T10:00:19;19.80;80.80
16412;DHT22;8315;52.104;6.304;2023-05-20T10:02:46;19.90;81.30
16412;DHT22;8315;52.104;6.304;2023-05-20T10:05:16;19.90;80.80
16412;DHT22;8315;52.104;6.304;2023-05-20T10:07:52;19.80;80.80
16412;DHT22;8315;52.104;6.304;2023-05-20T10:10:31;19.80;79.50
16412;DHT22;8315;52.104;6.304;2023-05-20T10:13:06;19.70;80.30
16412;DHT22;8315;52.104;6.304;2023-05-20T10:15:41;19.80;81.60
16412;DHT22;8315;52.104;6.304;2023-05-20T10:18:16;19.80;80.10
16412;DHT22;8315;52.104;6.304;2023-05-20T10:20:49;19.80;80.20
16412;DHT22;8315;52.104;6.304;2023-05-20T10:23:19;19.70;80.10
16412;DHT22;8315;52.104;6.304;2023-05-20T10:25:50;19.80;81.30
16412;DHT22;8315;52.104;6.304;2023-05-20T10:28:27;20.00;80.40
16412;DHT22;8315;52.104;6.304;2023-05-20T10:30:55;19.80;80.10
16412;DHT22;8315;52.104;6.304;2023-05-20T10:33:22;19.70;80.00
16412;DHT22;8315;52.104;6.304;2023-05-20T10:35:49;19.70;80.50
16412;DHT22;8315;52.104;6.304;2023-05-20T10:38:16;19.80;80.30
16412;DHT22;8315;52.104;6.304;2023-05-20T10:40:45;19.90;80.30
16412;DHT22;8315;52.104;6.304;2023-05-20T10:43:12;19.90;80.10
16412;DHT22;8315;52.104;6.304;2023-05-20T10:45:48;19.80;80.70
16412;DHT22;8315;52.104;6.304;2023-05-20T10:48:19;19.90;80.40
16412;DHT22;8315;52.104;6.304;2023-05-20T10:50:46;19.90;80.50
16412;DHT22;8315;52.104;6.304;2023-05-20T10:53:13;20.20;80.40
16412;DHT22;8315;52.104;6.304;2023-05-20T10:55:45;20.20;80.00
16412;DHT22;8315;52.104;6.304;2023-05-20T10:58:13;20.00;81.60
16412;DHT22;8315;52.104;6.304;2023-05-20T11:00:41;20.20;80.70
16412;DHT22;8315;52.104;6.304;2023-05-20T11:03:09;20.10;80.30
16412;DHT22;8315;52.104;6.304;2023-05-20T11:05:37;19.80;80.00
16412;DHT22;8315;52.104;6.304;2023-05-20T11:08:05;19.90;80.80
16412;DHT22;8315;52.104;6.304;2023-05-20T11:10:32;19.80;80.50
16412;DHT22;8315;52.104;6.304;2023-05-20T11:13:00;19.80;81.50
16412;DHT22;8315;52.104;6.304;2023-05-20T11:15:27;19.80;81.40
16412;DHT22;8315;52.104;6.304;2023-05-20T11:17:55;19.80;80.40
16412;DHT22;8315;52.104;6.304;2023-05-20T11:20:24;19.60;80.80
16412;DHT22;8315;52.104;6.304;2023-05-20T11:22:51;19.60;80.80
16412;DHT22;8315;52.104;6.304;2023-05-20T11:25:19;19.70;80.60
16412;DHT22;8315;52.104;6.304;2023-05-20T11:27:47;19.60;80.90
16412;DHT22;8315;52.104;6.304;2023-05-20T11:30:15;19.60;81.60
16412;DHT22;8315;52.104;6.304;2023-05-20T11:32:43;19.60;81.60
16412;DHT22;8315;52.104;6.304;2023-05-20T11:35:18;19.50;81.30
16412;DHT22;8315;52.104;6.304;2023-05-20T11:37:54;19.60;82.10
16412;DHT22;8315;52.104;6.304;2023-05-20T11:40:24;19.90;81.50
16412;DHT22;8315;52.104;6.304;2023-05-20T11:42:55;20.10;82.10
16412;DHT22;8315;52.104;6.304;2023-05-20T11:45:23;20.00;80.20
16412;DHT22;8315;52.104;6.304;2023-05-20T11:48:02;20.10;80.50
16412;DHT22;8315;52.104;6.304;2023-05-20T11:50:32;20.20;79.90
16412;DHT22;8315;52.104;6.304;2023-05-20T11:53:02;20.30;80.10
16412;DHT22;8315;52.104;6.304;2023-05-20T11:55:30;20.40;79.80
16412;DHT22;8315;52.104;6.304;2023-05-20T11:57:58;20.40;79.60
16412;DHT22;8315;52.104;6.304;2023-05-20T12:00:25;20.60;80.80
16412;DHT22;8315;52.104;6.304;2023-05-20T12:02:52;20.80;79.90
16412;DHT22;8315;52.104;6.304;2023-05-20T12:05:19;20.70;79.10
16412;DHT22;8315;52.104;6.304;2023-05-20T12:07:46;20.90;79.70
16412;DHT22;8315;52.104;6.304;2023-05-20T12:10:15;20.70;79.90
16412;DHT22;8315;52.104;6.304;2023-05-20T12:12:42;20.80;79.90
16412;DHT22;8315;52.104;6.304;2023-05-20T12:15:09;20.80;79.70
16412;DHT22;8315;52.104;6.304;2023-05-20T12:17:43;21.00;80.20
16412;DHT22;8315;52.104;6.304;2023-05-20T12:20:12;21.00;79.20
16412;DHT22;8315;52.104;6.304;2023-05-20T12:22:39;20.90;79.70
16412;DHT22;8315;52.104;6.304;2023-05-20T12:25:06;20.70;80.10
16412;DHT22;8315;52.104;6.304;2023-05-20T12:27:35;20.70;80.80
16412;DHT22;8315;52.104;6.304;2023-05-20T12:30:02;20.80;79.70
16412;DHT22;8315;52.104;6.304;2023-05-20T12:32:29;20.90;80.00
16412;DHT22;8315;52.104;6.304;2023-05-20T12:34:56;21.00;79.40
16412;DHT22;8315;52.104;6.304;2023-05-20T12:37:23;21.00;80.00
16412;DHT22;8315;52.104;6.304;2023-05-20T12:39:50;20.90;79.20
16412;DHT22;8315;52.104;6.304;2023-05-20T12:42:17;20.90;79.80
16412;DHT22;8315;52.104;6.304;2023-05-20T12:44:45;20.70;80.20
16412;DHT22;8315;52.104;6.304;2023-05-20T12:47:11;21.00;80.30
16412;DHT22;8315;52.104;6.304;2023-05-20T12:49:38;21.10;79.10
16412;DHT22;8315;52.104;6.304;2023-05-20T12:52:07;21.10;78.80
16412;DHT22;8315;52.104;6.304;2023-05-20T12:54:34;21.30;78.60
16412;DHT22;8315;52.104;6.304;2023-05-20T12:57:00;21.10;77.80
16412;DHT22;8315;52.104;6.304;2023-05-20T12:59:28;21.20;78.40
16412;DHT22;8315;52.104;6.304;2023-05-20T13:01:56;21.30;78.50
16412;DHT22;8315;52.104;6.304;2023-05-20T13:04:23;21.40;77.10
16412;DHT22;8315;52.104;6.304;2023-05-20T13:06:50;21.50;77.60
16412;DHT22;8315;52.104;6.304;2023-05-20T13:09:16;21.80;77.80
16412;DHT22;8315;52.104;6.304;2023-05-20T13:11:43;21.60;76.60
16412;DHT22;8315;52.104;6.304;2023-05-20T13:14:10;21.60;78.00
16412;DHT22;8315;52.104;6.304;2023-05-20T13:16:37;21.50;77.60
16412;DHT22;8315;52.104;6.304;2023-05-20T13:19:05;21.50;77.20
16412;DHT22;8315;52.104;6.304;2023-05-20T13:21:32;21.30;76.80
16412;DHT22;8315;52.104;6.304;2023-05-20T13:24:00;21.30;76.30
16412;DHT22;8315;52.104;6.304;2023-05-20T13:26:26;21.40;77.30
16412;DHT22;8315;52.104;6.304;2023-05-20T13:28:53;21.40;77.10
16412;DHT22;8315;52.104;6.304;2023-05-20T13:31:20;21.30;76.70
16412;DHT22;8315;52.104;6.304;2023-05-20T13:33:47;21.50;76.50
16412;DHT22;8315;52.104;6.304;2023-05-20T13:36:15;21.30;76.80
16412;DHT22;8315;52.104;6.304;2023-05-20T13:38:42;21.50;77.30
16412;DHT22;8315;52.104;6.304;2023-05-20T13:41:08;21.60;77.10
16412;DHT22;8315;52.104;6.304;2023-05-20T13:43:35;21.80;76.30
16412;DHT22;8315;52.104;6.304;2023-05-20T13:46:03;21.90;75.80
16412;DHT22;8315;52.104;6.304;2023-05-20T13:48:30;22.10;75.50
16412;DHT22;8315;52.104;6.304;2023-05-20T13:50:57;22.20;75.30
16412;DHT22;8315;52.104;6.304;2023-05-20T13:53:27;22.20;76.80
16412;DHT22;8315;52.104;6.304;2023-05-20T13:55:54;22.10;75.70
16412;DHT22;8315;52.104;6.304;2023-05-20T13:58:21;21.90;76.00
16412;DHT22;8315;52.104;6.304;2023-05-20T14:00:48;21.70;75.20
16412;DHT22;8315;52.104;6.304;2023-05-20T14:03:15;21.60;75.80
16412;DHT22;8315;52.104;6.304;2023-05-20T14:05:42;21.60;75.90
16412;DHT22;8315;52.104;6.304;2023-05-20T14:08:08;21.60;76.10
16412;DHT22;8315;52.104;6.304;2023-05-20T14:10:37;22.00;75.70
16412;DHT22;8315;52.104;6.304;2023-05-20T14:13:03;22.30;75.60
16412;DHT22;8315;52.104;6.304;2023-05-20T14:15:30;22.00;74.80
16412;DHT22;8315;52.104;6.304;2023-05-20T14:17:57;21.90;75.40
16412;DHT22;8315;52.104;6.304;2023-05-20T14:20:24;21.90;74.80
16412;DHT22;8315;52.104;6.304;2023-05-20T14:22:51;21.90;74.90
16412;DHT22;8315;52.104;6.304;2023-05-20T14:25:18;21.40;75.60
16412;DHT22;8315;52.104;6.304;2023-05-20T14:27:46;21.70;76.90
16412;DHT22;8315;52.104;6.304;2023-05-20T14:30:13;22.00;75.00
16412;DHT22;8315;52.104;6.304;2023-05-20T14:32:40;22.40;73.80
16412;DHT22;8315;52.104;6.304;2023-05-20T14:35:07;22.20;74.50
16412;DHT22;8315;52.104;6.304;2023-05-20T14:37:34;21.90;75.50
16412;DHT22;8315;52.104;6.304;2023-05-20T14:40:01;21.90;75.70
16412;DHT22;8315;52.104;6.304;2023-05-20T14:42:29;21.60;76.40
16412;DHT22;8315;52.104;6.304;2023-05-20T14:44:57;21.50;76.70
16412;DHT22;8315;52.104;6.304;2023-05-20T14:47:24;21.30;76.50
16412;DHT22;8315;52.104;6.304;2023-05-20T14:49:51;21.20;76.90
16412;DHT22;8315;52.104;6.304;2023-05-20T14:52:17;21.20;76.50
16412;DHT22;8315;52.104;6.304;2023-05-20T14:54:44;21.40;76.90
16412;DHT22;8315;52.104;6.304;2023-05-20T14:57:11;21.30;76.30
16412;DHT22;8315;52.104;6.304;2023-05-20T14:59:40;21.30;76.20
16412;DHT22;8315;52.104;6.304;2023-05-20T15:02:08;21.50;76.40
16412;DHT22;8315;52.104;6.304;2023-05-20T15:04:35;21.90;76.00
16412;DHT22;8315;52.104;6.304;2023-05-20T15:07:02;21.70;77.20
16412;DHT22;8315;52.104;6.304;2023-05-20T15:09:28;21.50;76.60
16412;DHT22;8315;52.104;6.304;2023-05-20T15:11:55;21.40;76.70
16412;DHT22;8315;52.104;6.304;2023-05-20T15:14:22;21.30;76.90
16412;DHT22;8315;52.104;6.304;2023-05-20T15:16:49;21.20;77.40
16412;DHT22;8315;52.104;6.304;2023-05-20T15:19:17;21.20;77.60
16412;DHT22;8315;52.104;6.304;2023-05-20T15:21:44;21.30;77.50
16412;DHT22;8315;52.104;6.304;2023-05-20T15:24:10;21.10;77.00
16412;DHT22;8315;52.104;6.304;2023-05-20T15:26:37;20.90;77.70
16412;DHT22;8315;52.104;6.304;2023-05-20T15:29:05;20.90;79.00
16412;DHT22;8315;52.104;6.304;2023-05-20T15:31:32;20.80;78.10
16412;DHT22;8315;52.104;6.304;2023-05-20T15:33:59;20.80;78.50
16412;DHT22;8315;52.104;6.304;2023-05-20T15:36:27;20.70;78.50
16412;DHT22;8315;52.104;6.304;2023-05-20T15:38:54;20.60;78.40
16412;DHT22;8315;52.104;6.304;2023-05-20T15:41:21;20.50;79.20
16412;DHT22;8315;52.104;6.304;2023-05-20T15:43:48;20.50;78.40
16412;DHT22;8315;52.104;6.304;2023-05-20T15:46:15;20.70;77.80
16412;DHT22;8315;52.104;6.304;2023-05-20T15:48:42;20.90;77.20